Aeroporto :







RITROVATECI SU...

 
LOGIN :

Iscrizione | Disclaimer

   EN    FR    IT 

 









Sommario :    VFR   VFR Marginale   IFR   IFR Intensivo   IFR Molto Intensivo
Visibilità : 
Base nubi : 
>= 8 km
>= 3000ft
5 / 8 km
1000 / 3000 ft
1500m / 5 km
500 / 1000 ft
800 / 1500m
200 / 500 ft
< 800m
< 200 ft
Simboli :   Temporali  Nebbia  Neve Forte  Precipitazioni Forti  Vento > 20 kt






- Altitudine del aeroporto : 56 ft


KRKD - Knox County Regional

ULTIMO METAR :
  • 102356Z AUTO 23012G17KT 9SM -RA BKN065 OVC080 11/09 A2975 RMK AO2 SLP074 P0001 60004 T01060094 10122 20106 53030

METARs OBSOLETI :
  • 102256Z AUTO 22013G24KT 9SM -RA OVC070 11/09 A2969 RMK AO2 SLP055 P0002 T01060094
  • 102156Z AUTO 23011KT 10SM -RA BKN065 OVC110 11/10 A2966 RMK AO2 SLP043 P0001 T01110100

TAF KRKD
Valido dal 11 a 00 ore il 12 a 00 ore UTC


102336Z 1100/1124 24010KT P6SM -SHRA FEW015 OVC070
TEMPO 1100/1104 5SM -SHRA BR OVC015
FM110500 30006KT P6SM -SHSN OVC025
PROB30 1109/1112 3SM -SN BKN015
FM111400 36006KT P6SM BKN040 AMD LTD TO VIS AND WIND



MetMap, La meteo Aeronautica in un colpo d'occhio ! - Copyright ORBIFLY Dicembre 2007 - Disclaimer

ORBIFLY MET'MAP TEAM :

Programmazione e sviluppo : Alexandra Zaïnal
Concezione : Baudouin d'Aumeries
Aiuto per la programmazione : Marc-Olivier Méhu
Supporto tecnico e logistico : Manuel Goepfert
Aiuto per la traduzione : Arnaldo La Scala

Contatto : metmap@orbifly.com




FONTI E CREDITI :

   NOAA